Park River, North Dakota
Current Conditions -  °F | °C
As of 2:15 AM on Thursday 27 Nov 2014 (Local Time) from KGAF Reporting Station
Clear Clear  
Wind Chill: -13°   Ceiling: Unl
Heat Index: -13°   Visibility: 10mi
Dew Point: -18°   Wind: 0mph
Humidity: 77%   Direction: NA
Pressure: 30.56"   Gusts: NA
Location:  48.4°N, 97.74°W
Report Text: KGAF 270815Z AUTO 00000KT 10SM CLR M25/M28 A3056 RMK AO2
Loading
Personal Weather Stations






























Interactive Weather Map New forecast layout! Learn more

10-Day Weather Forecast

Advertisements
Track Severe Weather on mobile